sensor_id;sensor_type;location;lat;lon;timestamp;temperature;humidity
37874;DHT22;23709;48.078;11.684;2023-05-14T00:01:32;11.40;99.90
37874;DHT22;23709;48.078;11.684;2023-05-14T00:04:04;11.40;99.90
37874;DHT22;23709;48.078;11.684;2023-05-14T00:06:37;11.40;99.90
37874;DHT22;23709;48.078;11.684;2023-05-14T00:09:09;11.40;99.90
37874;DHT22;23709;48.078;11.684;2023-05-14T00:11:42;11.50;99.90
37874;DHT22;23709;48.078;11.684;2023-05-14T00:14:14;11.50;99.90
37874;DHT22;23709;48.078;11.684;2023-05-14T00:16:47;11.40;99.90
37874;DHT22;23709;48.078;11.684;2023-05-14T00:19:19;11.40;99.90
37874;DHT22;23709;48.078;11.684;2023-05-14T00:21:51;11.40;99.90
37874;DHT22;23709;48.078;11.684;2023-05-14T00:24:24;11.40;99.90
37874;DHT22;23709;48.078;11.684;2023-05-14T00:26:56;11.40;99.90
37874;DHT22;23709;48.078;11.684;2023-05-14T00:29:28;11.30;99.90
37874;DHT22;23709;48.078;11.684;2023-05-14T00:32:02;11.30;99.90
37874;DHT22;23709;48.078;11.684;2023-05-14T00:34:34;11.30;99.90
37874;DHT22;23709;48.078;11.684;2023-05-14T00:37:07;11.30;99.90
37874;DHT22;23709;48.078;11.684;2023-05-14T00:39:40;11.30;99.90
37874;DHT22;23709;48.078;11.684;2023-05-14T00:42:12;11.30;99.90
37874;DHT22;23709;48.078;11.684;2023-05-14T00:44:44;11.30;99.90
37874;DHT22;23709;48.078;11.684;2023-05-14T00:47:16;11.40;99.90
37874;DHT22;23709;48.078;11.684;2023-05-14T00:49:49;11.40;99.90
37874;DHT22;23709;48.078;11.684;2023-05-14T00:52:21;11.30;99.90
37874;DHT22;23709;48.078;11.684;2023-05-14T00:54:54;11.30;99.90
37874;DHT22;23709;48.078;11.684;2023-05-14T00:57:27;11.30;99.90
37874;DHT22;23709;48.078;11.684;2023-05-14T01:00:00;11.40;99.90
37874;DHT22;23709;48.078;11.684;2023-05-14T01:02:32;11.30;99.90
37874;DHT22;23709;48.078;11.684;2023-05-14T01:05:05;11.30;99.90
37874;DHT22;23709;48.078;11.684;2023-05-14T01:07:56;11.40;99.90
37874;DHT22;23709;48.078;11.684;2023-05-14T01:10:41;11.30;99.90
37874;DHT22;23709;48.078;11.684;2023-05-14T01:13:33;11.30;99.90
37874;DHT22;23709;48.078;11.684;2023-05-14T01:16:12;11.30;99.90
37874;DHT22;23709;48.078;11.684;2023-05-14T01:18:45;11.30;99.90
37874;DHT22;23709;48.078;11.684;2023-05-14T01:21:36;11.30;99.90
37874;DHT22;23709;48.078;11.684;2023-05-14T01:24:09;11.30;99.90
37874;DHT22;23709;48.078;11.684;2023-05-14T01:26:41;11.30;99.90
37874;DHT22;23709;48.078;11.684;2023-05-14T01:29:21;11.30;99.90
37874;DHT22;23709;48.078;11.684;2023-05-14T01:31:56;11.20;99.90
37874;DHT22;23709;48.078;11.684;2023-05-14T01:34:32;11.20;99.90
37874;DHT22;23709;48.078;11.684;2023-05-14T01:37:07;11.20;99.90
37874;DHT22;23709;48.078;11.684;2023-05-14T01:39:41;11.20;99.90
37874;DHT22;23709;48.078;11.684;2023-05-14T01:42:14;11.20;99.90
37874;DHT22;23709;48.078;11.684;2023-05-14T01:44:46;11.20;99.90
37874;DHT22;23709;48.078;11.684;2023-05-14T01:47:19;11.20;99.90
37874;DHT22;23709;48.078;11.684;2023-05-14T01:49:52;11.20;99.90
37874;DHT22;23709;48.078;11.684;2023-05-14T01:52:25;11.20;99.90
37874;DHT22;23709;48.078;11.684;2023-05-14T01:54:57;11.20;99.90
37874;DHT22;23709;48.078;11.684;2023-05-14T01:57:31;11.10;99.90
37874;DHT22;23709;48.078;11.684;2023-05-14T02:00:03;11.10;99.90
37874;DHT22;23709;48.078;11.684;2023-05-14T02:02:44;11.10;99.90
37874;DHT22;23709;48.078;11.684;2023-05-14T02:05:18;11.10;99.90
37874;DHT22;23709;48.078;11.684;2023-05-14T02:07:50;11.10;99.90
37874;DHT22;23709;48.078;11.684;2023-05-14T02:10:22;11.00;99.90
37874;DHT22;23709;48.078;11.684;2023-05-14T02:12:55;11.00;99.90
37874;DHT22;23709;48.078;11.684;2023-05-14T02:15:27;11.00;99.90
37874;DHT22;23709;48.078;11.684;2023-05-14T02:18:00;11.00;99.90
37874;DHT22;23709;48.078;11.684;2023-05-14T02:20:32;11.00;99.90
37874;DHT22;23709;48.078;11.684;2023-05-14T02:23:06;10.90;99.90
37874;DHT22;23709;48.078;11.684;2023-05-14T02:25:38;10.90;99.90
37874;DHT22;23709;48.078;11.684;2023-05-14T02:28:10;10.90;99.90
37874;DHT22;23709;48.078;11.684;2023-05-14T02:30:43;10.90;99.90
37874;DHT22;23709;48.078;11.684;2023-05-14T02:33:15;10.90;99.90
37874;DHT22;23709;48.078;11.684;2023-05-14T02:35:47;10.80;99.90
37874;DHT22;23709;48.078;11.684;2023-05-14T02:38:21;10.80;99.90
37874;DHT22;23709;48.078;11.684;2023-05-14T02:40:53;10.80;99.90
37874;DHT22;23709;48.078;11.684;2023-05-14T02:43:25;10.80;99.90
37874;DHT22;23709;48.078;11.684;2023-05-14T02:45:57;10.70;99.90
37874;DHT22;23709;48.078;11.684;2023-05-14T02:48:30;10.70;99.90
37874;DHT22;23709;48.078;11.684;2023-05-14T02:51:02;10.70;99.90
37874;DHT22;23709;48.078;11.684;2023-05-14T02:53:35;10.70;99.90
37874;DHT22;23709;48.078;11.684;2023-05-14T02:56:07;10.70;99.90
37874;DHT22;23709;48.078;11.684;2023-05-14T02:58:39;10.70;99.90
37874;DHT22;23709;48.078;11.684;2023-05-14T03:01:12;10.70;99.90
37874;DHT22;23709;48.078;11.684;2023-05-14T03:03:44;10.70;99.90
37874;DHT22;23709;48.078;11.684;2023-05-14T03:06:18;10.70;99.90
37874;DHT22;23709;48.078;11.684;2023-05-14T03:08:50;10.70;99.90
37874;DHT22;23709;48.078;11.684;2023-05-14T03:11:22;10.60;99.90
37874;DHT22;23709;48.078;11.684;2023-05-14T03:13:55;10.60;99.90
37874;DHT22;23709;48.078;11.684;2023-05-14T03:16:27;10.60;99.90
37874;DHT22;23709;48.078;11.684;2023-05-14T03:19:01;10.70;99.90
37874;DHT22;23709;48.078;11.684;2023-05-14T03:21:33;10.70;99.90
37874;DHT22;23709;48.078;11.684;2023-05-14T03:24:05;10.70;99.90
37874;DHT22;23709;48.078;11.684;2023-05-14T03:26:38;10.70;99.90
37874;DHT22;23709;48.078;11.684;2023-05-14T03:29:11;10.60;99.90
37874;DHT22;23709;48.078;11.684;2023-05-14T03:31:44;10.60;99.90
37874;DHT22;23709;48.078;11.684;2023-05-14T03:34:17;10.70;99.90
37874;DHT22;23709;48.078;11.684;2023-05-14T03:36:49;10.70;99.90
37874;DHT22;23709;48.078;11.684;2023-05-14T03:39:21;10.60;99.90
37874;DHT22;23709;48.078;11.684;2023-05-14T03:41:54;10.60;99.90
37874;DHT22;23709;48.078;11.684;2023-05-14T03:44:28;10.60;99.90
37874;DHT22;23709;48.078;11.684;2023-05-14T03:47:00;10.50;99.90
37874;DHT22;23709;48.078;11.684;2023-05-14T03:49:32;10.60;99.90
37874;DHT22;23709;48.078;11.684;2023-05-14T03:52:04;10.60;99.90
37874;DHT22;23709;48.078;11.684;2023-05-14T03:54:37;10.60;99.90
37874;DHT22;23709;48.078;11.684;2023-05-14T03:57:09;10.60;99.90
37874;DHT22;23709;48.078;11.684;2023-05-14T03:59:42;10.60;99.90
37874;DHT22;23709;48.078;11.684;2023-05-14T04:02:14;10.50;99.90
37874;DHT22;23709;48.078;11.684;2023-05-14T04:04:46;10.50;99.90
37874;DHT22;23709;48.078;11.684;2023-05-14T04:07:22;10.50;99.90
37874;DHT22;23709;48.078;11.684;2023-05-14T04:09:57;10.50;99.90
37874;DHT22;23709;48.078;11.684;2023-05-14T04:12:33;10.50;99.90
37874;DHT22;23709;48.078;11.684;2023-05-14T04:15:06;10.50;99.90
37874;DHT22;23709;48.078;11.684;2023-05-14T04:17:39;10.50;99.90
37874;DHT22;23709;48.078;11.684;2023-05-14T04:20:11;10.40;99.90
37874;DHT22;23709;48.078;11.684;2023-05-14T04:22:44;10.40;99.90
37874;DHT22;23709;48.078;11.684;2023-05-14T04:25:16;10.40;99.90
37874;DHT22;23709;48.078;11.684;2023-05-14T04:27:49;10.40;99.90
37874;DHT22;23709;48.078;11.684;2023-05-14T04:30:22;10.40;99.90
37874;DHT22;23709;48.078;11.684;2023-05-14T04:32:54;10.40;99.90
37874;DHT22;23709;48.078;11.684;2023-05-14T04:35:26;10.40;99.90
37874;DHT22;23709;48.078;11.684;2023-05-14T04:37:59;10.40;99.90
37874;DHT22;23709;48.078;11.684;2023-05-14T04:40:31;10.30;99.90
37874;DHT22;23709;48.078;11.684;2023-05-14T04:43:05;10.30;99.90
37874;DHT22;23709;48.078;11.684;2023-05-14T04:45:37;10.40;99.90
37874;DHT22;23709;48.078;11.684;2023-05-14T04:48:09;10.40;99.90
37874;DHT22;23709;48.078;11.684;2023-05-14T04:50:42;10.40;99.90
37874;DHT22;23709;48.078;11.684;2023-05-14T04:53:15;10.40;99.90
37874;DHT22;23709;48.078;11.684;2023-05-14T04:55:47;10.40;99.90
37874;DHT22;23709;48.078;11.684;2023-05-14T04:58:20;10.40;99.90
37874;DHT22;23709;48.078;11.684;2023-05-14T05:00:54;10.40;99.90
37874;DHT22;23709;48.078;11.684;2023-05-14T05:03:26;10.40;99.90
37874;DHT22;23709;48.078;11.684;2023-05-14T05:05:59;10.30;99.90
37874;DHT22;23709;48.078;11.684;2023-05-14T05:08:31;10.30;99.90
37874;DHT22;23709;48.078;11.684;2023-05-14T05:11:04;10.30;99.90
37874;DHT22;23709;48.078;11.684;2023-05-14T05:13:36;10.30;99.90
37874;DHT22;23709;48.078;11.684;2023-05-14T05:16:08;10.20;99.90
37874;DHT22;23709;48.078;11.684;2023-05-14T05:18:41;10.30;99.90
37874;DHT22;23709;48.078;11.684;2023-05-14T05:21:15;10.30;99.90
37874;DHT22;23709;48.078;11.684;2023-05-14T05:23:47;10.30;99.90
37874;DHT22;23709;48.078;11.684;2023-05-14T05:26:20;10.30;99.90
37874;DHT22;23709;48.078;11.684;2023-05-14T05:28:53;10.30;99.90
37874;DHT22;23709;48.078;11.684;2023-05-14T05:31:25;10.30;99.90
37874;DHT22;23709;48.078;11.684;2023-05-14T05:33:58;10.40;99.90
37874;DHT22;23709;48.078;11.684;2023-05-14T05:36:31;10.40;99.90
37874;DHT22;23709;48.078;11.684;2023-05-14T05:39:03;10.40;99.90
37874;DHT22;23709;48.078;11.684;2023-05-14T05:41:35;10.50;99.90
37874;DHT22;23709;48.078;11.684;2023-05-14T05:44:08;10.50;99.90
37874;DHT22;23709;48.078;11.684;2023-05-14T05:46:40;10.50;99.90
37874;DHT22;23709;48.078;11.684;2023-05-14T05:49:12;10.50;99.90
37874;DHT22;23709;48.078;11.684;2023-05-14T05:51:45;10.50;99.90
37874;DHT22;23709;48.078;11.684;2023-05-14T05:54:18;10.50;99.90
37874;DHT22;23709;48.078;11.684;2023-05-14T05:56:51;10.50;99.90
37874;DHT22;23709;48.078;11.684;2023-05-14T05:59:23;10.60;99.90
37874;DHT22;23709;48.078;11.684;2023-05-14T06:01:56;10.60;99.90
37874;DHT22;23709;48.078;11.684;2023-05-14T06:04:28;10.60;99.90
37874;DHT22;23709;48.078;11.684;2023-05-14T06:07:00;10.60;99.90
37874;DHT22;23709;48.078;11.684;2023-05-14T06:09:33;10.70;99.90
37874;DHT22;23709;48.078;11.684;2023-05-14T06:12:06;10.70;99.90
37874;DHT22;23709;48.078;11.684;2023-05-14T06:14:38;10.70;99.90
37874;DHT22;23709;48.078;11.684;2023-05-14T06:17:10;10.70;99.90
37874;DHT22;23709;48.078;11.684;2023-05-14T06:19:42;10.70;99.90
37874;DHT22;23709;48.078;11.684;2023-05-14T06:22:15;10.80;99.90
37874;DHT22;23709;48.078;11.684;2023-05-14T06:24:47;10.70;99.90
37874;DHT22;23709;48.078;11.684;2023-05-14T06:27:20;10.80;99.90
37874;DHT22;23709;48.078;11.684;2023-05-14T06:29:53;10.80;99.90
37874;DHT22;23709;48.078;11.684;2023-05-14T06:32:25;10.80;99.90
37874;DHT22;23709;48.078;11.684;2023-05-14T06:34:57;10.80;99.90
37874;DHT22;23709;48.078;11.684;2023-05-14T06:37:30;10.90;99.90
37874;DHT22;23709;48.078;11.684;2023-05-14T06:40:02;10.90;99.90
37874;DHT22;23709;48.078;11.684;2023-05-14T06:42:35;11.00;99.90
37874;DHT22;23709;48.078;11.684;2023-05-14T06:45:09;10.90;99.90
37874;DHT22;23709;48.078;11.684;2023-05-14T06:47:41;11.00;99.90
37874;DHT22;23709;48.078;11.684;2023-05-14T06:50:14;10.90;99.90
37874;DHT22;23709;48.078;11.684;2023-05-14T06:52:46;11.00;99.90
37874;DHT22;23709;48.078;11.684;2023-05-14T06:55:19;11.00;99.90
37874;DHT22;23709;48.078;11.684;2023-05-14T06:57:51;10.90;99.90
37874;DHT22;23709;48.078;11.684;2023-05-14T07:00:24;11.00;99.90
37874;DHT22;23709;48.078;11.684;2023-05-14T07:02:57;11.00;99.90
37874;DHT22;23709;48.078;11.684;2023-05-14T07:05:29;11.00;99.90
37874;DHT22;23709;48.078;11.684;2023-05-14T07:08:02;11.10;99.90
37874;DHT22;23709;48.078;11.684;2023-05-14T07:10:34;11.20;99.90
37874;DHT22;23709;48.078;11.684;2023-05-14T07:13:07;11.20;99.90
37874;DHT22;23709;48.078;11.684;2023-05-14T07:15:39;11.20;99.90
37874;DHT22;23709;48.078;11.684;2023-05-14T07:18:12;11.30;99.90
37874;DHT22;23709;48.078;11.684;2023-05-14T07:20:44;11.30;99.90
37874;DHT22;23709;48.078;11.684;2023-05-14T07:23:16;11.30;99.90
37874;DHT22;23709;48.078;11.684;2023-05-14T07:25:50;11.40;99.90
37874;DHT22;23709;48.078;11.684;2023-05-14T07:28:23;11.40;99.90
37874;DHT22;23709;48.078;11.684;2023-05-14T07:30:55;11.40;99.90
37874;DHT22;23709;48.078;11.684;2023-05-14T07:33:28;11.50;99.90
37874;DHT22;23709;48.078;11.684;2023-05-14T07:36:00;11.50;99.90
37874;DHT22;23709;48.078;11.684;2023-05-14T07:38:34;11.60;99.90
37874;DHT22;23709;48.078;11.684;2023-05-14T07:41:07;11.70;99.90
37874;DHT22;23709;48.078;11.684;2023-05-14T07:43:43;11.80;99.90
37874;DHT22;23709;48.078;11.684;2023-05-14T07:46:15;11.80;99.90
37874;DHT22;23709;48.078;11.684;2023-05-14T07:48:47;11.80;99.90
37874;DHT22;23709;48.078;11.684;2023-05-14T07:51:20;11.90;99.90
37874;DHT22;23709;48.078;11.684;2023-05-14T07:53:53;11.90;99.90
37874;DHT22;23709;48.078;11.684;2023-05-14T07:56:26;11.90;99.90
37874;DHT22;23709;48.078;11.684;2023-05-14T07:58:59;11.90;99.90
37874;DHT22;23709;48.078;11.684;2023-05-14T08:01:31;11.90;99.90
37874;DHT22;23709;48.078;11.684;2023-05-14T08:04:04;11.90;99.90
37874;DHT22;23709;48.078;11.684;2023-05-14T08:06:36;11.80;99.90
37874;DHT22;23709;48.078;11.684;2023-05-14T08:09:08;11.80;99.90
37874;DHT22;23709;48.078;11.684;2023-05-14T08:11:41;11.80;99.90
37874;DHT22;23709;48.078;11.684;2023-05-14T08:14:13;11.70;99.90
37874;DHT22;23709;48.078;11.684;2023-05-14T08:16:46;11.70;99.90
37874;DHT22;23709;48.078;11.684;2023-05-14T08:19:18;11.70;99.90
37874;DHT22;23709;48.078;11.684;2023-05-14T08:21:51;11.60;99.90
37874;DHT22;23709;48.078;11.684;2023-05-14T08:24:26;11.60;99.90
37874;DHT22;23709;48.078;11.684;2023-05-14T08:26:59;11.70;99.90
37874;DHT22;23709;48.078;11.684;2023-05-14T08:29:31;11.70;99.90
37874;DHT22;23709;48.078;11.684;2023-05-14T08:32:04;11.80;99.90
37874;DHT22;23709;48.078;11.684;2023-05-14T08:34:53;11.80;99.90
37874;DHT22;23709;48.078;11.684;2023-05-14T08:37:25;11.80;99.90
37874;DHT22;23709;48.078;11.684;2023-05-14T08:39:58;11.80;99.90
37874;DHT22;23709;48.078;11.684;2023-05-14T08:42:31;11.80;99.90
37874;DHT22;23709;48.078;11.684;2023-05-14T08:45:04;11.80;99.90
37874;DHT22;23709;48.078;11.684;2023-05-14T08:47:37;11.90;99.90
37874;DHT22;23709;48.078;11.684;2023-05-14T08:50:11;12.00;99.90
37874;DHT22;23709;48.078;11.684;2023-05-14T08:52:44;11.90;99.90
37874;DHT22;23709;48.078;11.684;2023-05-14T08:55:16;11.90;99.90
37874;DHT22;23709;48.078;11.684;2023-05-14T08:57:49;11.90;99.90
37874;DHT22;23709;48.078;11.684;2023-05-14T09:00:22;11.90;99.90
37874;DHT22;23709;48.078;11.684;2023-05-14T09:02:56;11.90;99.90
37874;DHT22;23709;48.078;11.684;2023-05-14T09:05:29;12.00;99.90
37874;DHT22;23709;48.078;11.684;2023-05-14T09:08:02;12.10;99.90
37874;DHT22;23709;48.078;11.684;2023-05-14T09:10:34;12.20;99.90
37874;DHT22;23709;48.078;11.684;2023-05-14T09:13:07;12.40;99.90
37874;DHT22;23709;48.078;11.684;2023-05-14T09:15:41;12.30;99.90
37874;DHT22;23709;48.078;11.684;2023-05-14T09:18:13;12.30;99.90
37874;DHT22;23709;48.078;11.684;2023-05-14T09:20:46;12.30;99.90
37874;DHT22;23709;48.078;11.684;2023-05-14T09:23:19;12.30;99.90
37874;DHT22;23709;48.078;11.684;2023-05-14T09:25:51;12.20;99.90
37874;DHT22;23709;48.078;11.684;2023-05-14T09:28:24;12.20;99.90
37874;DHT22;23709;48.078;11.684;2023-05-14T09:30:59;12.20;99.90
37874;DHT22;23709;48.078;11.684;2023-05-14T09:33:33;12.20;99.90
37874;DHT22;23709;48.078;11.684;2023-05-14T09:36:07;12.30;99.90
37874;DHT22;23709;48.078;11.684;2023-05-14T09:38:39;12.30;99.90
37874;DHT22;23709;48.078;11.684;2023-05-14T09:41:12;12.20;99.90
37874;DHT22;23709;48.078;11.684;2023-05-14T09:43:44;12.20;99.90
37874;DHT22;23709;48.078;11.684;2023-05-14T09:46:19;12.20;99.90
37874;DHT22;23709;48.078;11.684;2023-05-14T09:48:54;12.20;99.90
37874;DHT22;23709;48.078;11.684;2023-05-14T09:51:30;12.20;99.90
37874;DHT22;23709;48.078;11.684;2023-05-14T09:54:04;12.20;99.90
37874;DHT22;23709;48.078;11.684;2023-05-14T09:56:37;12.20;99.90
37874;DHT22;23709;48.078;11.684;2023-05-14T09:59:10;12.10;99.90
37874;DHT22;23709;48.078;11.684;2023-05-14T10:01:43;12.10;99.90
37874;DHT22;23709;48.078;11.684;2023-05-14T10:04:16;12.10;99.90
37874;DHT22;23709;48.078;11.684;2023-05-14T10:06:50;12.10;99.90
37874;DHT22;23709;48.078;11.684;2023-05-14T10:09:26;12.10;99.90
37874;DHT22;23709;48.078;11.684;2023-05-14T10:12:00;12.10;99.90
37874;DHT22;23709;48.078;11.684;2023-05-14T10:14:39;12.10;99.90
37874;DHT22;23709;48.078;11.684;2023-05-14T10:17:12;12.10;99.90
37874;DHT22;23709;48.078;11.684;2023-05-14T10:19:52;12.10;99.90
37874;DHT22;23709;48.078;11.684;2023-05-14T10:22:30;12.20;99.90
37874;DHT22;23709;48.078;11.684;2023-05-14T10:25:05;12.20;99.90
37874;DHT22;23709;48.078;11.684;2023-05-14T10:27:38;12.30;99.90
37874;DHT22;23709;48.078;11.684;2023-05-14T10:30:12;12.30;99.90
37874;DHT22;23709;48.078;11.684;2023-05-14T10:32:44;12.40;99.90
37874;DHT22;23709;48.078;11.684;2023-05-14T10:35:19;12.40;99.90
37874;DHT22;23709;48.078;11.684;2023-05-14T10:37:53;12.50;99.90
37874;DHT22;23709;48.078;11.684;2023-05-14T10:40:27;12.60;99.90
37874;DHT22;23709;48.078;11.684;2023-05-14T10:42:59;12.80;99.90
37874;DHT22;23709;48.078;11.684;2023-05-14T10:45:31;13.10;99.90
37874;DHT22;23709;48.078;11.684;2023-05-14T10:48:05;13.70;99.90
37874;DHT22;23709;48.078;11.684;2023-05-14T10:50:38;13.90;99.90
37874;DHT22;23709;48.078;11.684;2023-05-14T10:53:12;13.90;99.90
37874;DHT22;23709;48.078;11.684;2023-05-14T10:55:44;14.00;99.90
37874;DHT22;23709;48.078;11.684;2023-05-14T10:58:17;14.00;99.90
37874;DHT22;23709;48.078;11.684;2023-05-14T11:00:53;14.00;99.90
37874;DHT22;23709;48.078;11.684;2023-05-14T11:03:29;13.90;99.90
37874;DHT22;23709;48.078;11.684;2023-05-14T11:06:05;13.90;99.90
37874;DHT22;23709;48.078;11.684;2023-05-14T11:08:38;13.90;99.90
37874;DHT22;23709;48.078;11.684;2023-05-14T11:11:11;13.90;99.90
37874;DHT22;23709;48.078;11.684;2023-05-14T11:13:43;13.80;99.90
37874;DHT22;23709;48.078;11.684;2023-05-14T11:16:16;13.90;99.90
37874;DHT22;23709;48.078;11.684;2023-05-14T11:19:02;14.00;99.90
37874;DHT22;23709;48.078;11.684;2023-05-14T11:21:35;14.30;99.90
37874;DHT22;23709;48.078;11.684;2023-05-14T11:24:07;14.70;99.90
37874;DHT22;23709;48.078;11.684;2023-05-14T11:26:40;14.90;99.90
37874;DHT22;23709;48.078;11.684;2023-05-14T11:29:15;14.90;99.90
37874;DHT22;23709;48.078;11.684;2023-05-14T11:31:49;14.80;99.90
37874;DHT22;23709;48.078;11.684;2023-05-14T11:34:21;14.70;99.90
37874;DHT22;23709;48.078;11.684;2023-05-14T11:36:54;14.60;99.90
37874;DHT22;23709;48.078;11.684;2023-05-14T11:39:26;14.60;99.90
37874;DHT22;23709;48.078;11.684;2023-05-14T11:42:02;14.80;99.90
37874;DHT22;23709;48.078;11.684;2023-05-14T11:44:37;14.80;99.90
37874;DHT22;23709;48.078;11.684;2023-05-14T11:47:09;14.90;99.90
37874;DHT22;23709;48.078;11.684;2023-05-14T11:49:42;15.00;99.90
37874;DHT22;23709;48.078;11.684;2023-05-14T11:52:15;15.40;99.90
37874;DHT22;23709;48.078;11.684;2023-05-14T11:54:50;15.50;99.90
37874;DHT22;23709;48.078;11.684;2023-05-14T11:57:23;15.40;99.90
37874;DHT22;23709;48.078;11.684;2023-05-14T11:59:56;15.60;99.90
37874;DHT22;23709;48.078;11.684;2023-05-14T12:02:28;15.70;99.90
37874;DHT22;23709;48.078;11.684;2023-05-14T12:05:01;15.60;99.90
37874;DHT22;23709;48.078;11.684;2023-05-14T12:07:34;15.40;99.90
37874;DHT22;23709;48.078;11.684;2023-05-14T12:10:07;15.30;99.90
37874;DHT22;23709;48.078;11.684;2023-05-14T12:12:47;15.30;99.90
37874;DHT22;23709;48.078;11.684;2023-05-14T12:15:20;15.70;99.90
37874;DHT22;23709;48.078;11.684;2023-05-14T12:17:53;16.20;99.90
37874;DHT22;23709;48.078;11.684;2023-05-14T12:20:28;16.90;99.90
37874;DHT22;23709;48.078;11.684;2023-05-14T12:23:01;17.30;99.90
37874;DHT22;23709;48.078;11.684;2023-05-14T12:25:34;17.80;98.30
37874;DHT22;23709;48.078;11.684;2023-05-14T12:28:16;18.10;95.70
37874;DHT22;23709;48.078;11.684;2023-05-14T12:30:55;17.80;91.90
37874;DHT22;23709;48.078;11.684;2023-05-14T12:33:28;17.70;92.20
37874;DHT22;23709;48.078;11.684;2023-05-14T12:36:01;17.90;93.10
37874;DHT22;23709;48.078;11.684;2023-05-14T12:39:00;18.10;91.60
37874;DHT22;23709;48.078;11.684;2023-05-14T12:41:35;18.10;90.50
37874;DHT22;23709;48.078;11.684;2023-05-14T12:44:07;17.80;90.80
37874;DHT22;23709;48.078;11.684;2023-05-14T12:46:40;18.20;90.90
37874;DHT22;23709;48.078;11.684;2023-05-14T12:49:12;18.50;90.80
37874;DHT22;23709;48.078;11.684;2023-05-14T12:51:45;18.40;88.70
37874;DHT22;23709;48.078;11.684;2023-05-14T12:54:17;18.50;90.10
37874;DHT22;23709;48.078;11.684;2023-05-14T12:56:50;18.60;88.20
37874;DHT22;23709;48.078;11.684;2023-05-14T12:59:23;18.60;88.50
37874;DHT22;23709;48.078;11.684;2023-05-14T13:01:56;18.20;87.00
37874;DHT22;23709;48.078;11.684;2023-05-14T13:04:28;18.30;87.50
37874;DHT22;23709;48.078;11.684;2023-05-14T13:07:00;18.50;85.90
37874;DHT22;23709;48.078;11.684;2023-05-14T13:09:33;19.00;85.00
37874;DHT22;23709;48.078;11.684;2023-05-14T13:12:06;19.00;83.20
37874;DHT22;23709;48.078;11.684;2023-05-14T13:14:38;19.10;81.60
37874;DHT22;23709;48.078;11.684;2023-05-14T13:17:10;18.90;82.30
37874;DHT22;23709;48.078;11.684;2023-05-14T13:19:43;18.90;80.70
37874;DHT22;23709;48.078;11.684;2023-05-14T13:22:15;19.20;79.30
37874;DHT22;23709;48.078;11.684;2023-05-14T13:24:49;19.20;79.30
37874;DHT22;23709;48.078;11.684;2023-05-14T13:27:22;19.30;79.00
37874;DHT22;23709;48.078;11.684;2023-05-14T13:29:54;19.70;77.10
37874;DHT22;23709;48.078;11.684;2023-05-14T13:32:28;20.00;78.10
37874;DHT22;23709;48.078;11.684;2023-05-14T13:35:00;20.00;79.50
37874;DHT22;23709;48.078;11.684;2023-05-14T13:37:33;20.30;77.50
37874;DHT22;23709;48.078;11.684;2023-05-14T13:40:06;20.40;76.90
37874;DHT22;23709;48.078;11.684;2023-05-14T13:42:39;20.40;75.60
37874;DHT22;23709;48.078;11.684;2023-05-14T13:45:12;20.30;75.40
37874;DHT22;23709;48.078;11.684;2023-05-14T13:47:44;20.40;75.10
37874;DHT22;23709;48.078;11.684;2023-05-14T13:50:17;19.80;74.80
37874;DHT22;23709;48.078;11.684;2023-05-14T13:52:49;19.80;75.20
37874;DHT22;23709;48.078;11.684;2023-05-14T13:55:22;19.70;75.80
37874;DHT22;23709;48.078;11.684;2023-05-14T13:57:55;19.60;75.80
37874;DHT22;23709;48.078;11.684;2023-05-14T14:00:27;19.60;76.50
37874;DHT22;23709;48.078;11.684;2023-05-14T14:03:00;19.70;75.50
37874;DHT22;23709;48.078;11.684;2023-05-14T14:05:34;19.70;75.00
37874;DHT22;23709;48.078;11.684;2023-05-14T14:08:08;19.80;74.90
37874;DHT22;23709;48.078;11.684;2023-05-14T14:10:54;19.60;74.50
37874;DHT22;23709;48.078;11.684;2023-05-14T14:13:27;19.40;73.70
37874;DHT22;23709;48.078;11.684;2023-05-14T14:16:00;19.10;74.90
37874;DHT22;23709;48.078;11.684;2023-05-14T14:18:34;19.30;77.30
37874;DHT22;23709;48.078;11.684;2023-05-14T14:21:07;19.70;75.40
37874;DHT22;23709;48.078;11.684;2023-05-14T14:23:40;19.70;74.60
37874;DHT22;23709;48.078;11.684;2023-05-14T14:26:12;20.00;73.50
37874;DHT22;23709;48.078;11.684;2023-05-14T14:28:45;20.10;73.70
37874;DHT22;23709;48.078;11.684;2023-05-14T14:31:18;19.90;71.90
37874;DHT22;23709;48.078;11.684;2023-05-14T14:33:51;19.70;72.70
37874;DHT22;23709;48.078;11.684;2023-05-14T14:36:23;19.80;73.50
37874;DHT22;23709;48.078;11.684;2023-05-14T14:38:55;19.90;72.70
37874;DHT22;23709;48.078;11.684;2023-05-14T14:44:01;19.90;72.30
37874;DHT22;23709;48.078;11.684;2023-05-14T14:46:34;20.30;71.70
37874;DHT22;23709;48.078;11.684;2023-05-14T14:49:06;20.50;71.90
37874;DHT22;23709;48.078;11.684;2023-05-14T14:51:38;20.20;71.00
37874;DHT22;23709;48.078;11.684;2023-05-14T14:54:11;19.60;71.60
37874;DHT22;23709;48.078;11.684;2023-05-14T14:56:44;19.80;72.50
37874;DHT22;23709;48.078;11.684;2023-05-14T14:59:17;20.20;71.10
37874;DHT22;23709;48.078;11.684;2023-05-14T15:01:49;20.70;71.80
37874;DHT22;23709;48.078;11.684;2023-05-14T15:04:22;20.90;70.50
37874;DHT22;23709;48.078;11.684;2023-05-14T15:06:54;20.70;70.30
37874;DHT22;23709;48.078;11.684;2023-05-14T15:09:27;21.10;70.00
37874;DHT22;23709;48.078;11.684;2023-05-14T15:14:32;21.30;67.90
37874;DHT22;23709;48.078;11.684;2023-05-14T15:17:04;21.50;66.10
37874;DHT22;23709;48.078;11.684;2023-05-14T15:22:09;21.70;66.20
37874;DHT22;23709;48.078;11.684;2023-05-14T15:24:41;21.70;65.90
37874;DHT22;23709;48.078;11.684;2023-05-14T15:27:14;20.90;66.10
37874;DHT22;23709;48.078;11.684;2023-05-14T15:29:46;20.80;67.60
37874;DHT22;23709;48.078;11.684;2023-05-14T15:32:19;21.00;67.40
37874;DHT22;23709;48.078;11.684;2023-05-14T15:34:52;21.00;67.60
37874;DHT22;23709;48.078;11.684;2023-05-14T15:37:25;20.70;67.10
37874;DHT22;23709;48.078;11.684;2023-05-14T15:39:58;20.50;68.90
37874;DHT22;23709;48.078;11.684;2023-05-14T15:42:30;20.30;69.00
37874;DHT22;23709;48.078;11.684;2023-05-14T15:45:03;19.90;68.70
37874;DHT22;23709;48.078;11.684;2023-05-14T15:47:36;19.70;70.00
37874;DHT22;23709;48.078;11.684;2023-05-14T15:50:09;19.40;69.70
37874;DHT22;23709;48.078;11.684;2023-05-14T15:52:42;18.70;71.00
37874;DHT22;23709;48.078;11.684;2023-05-14T15:55:14;18.00;71.90
37874;DHT22;23709;48.078;11.684;2023-05-14T15:57:46;17.50;73.60
37874;DHT22;23709;48.078;11.684;2023-05-14T16:00:19;17.00;75.20